Flight Track Log - Related Links

Times and Time Zones

All times are in EDT time to prevent confusion due to time zone crossing. See the FSR411 flight status page for this flight to view local times or setup timezone preferences in your user account.

Time Position Orientation Groundspeed Altitude Reporting Facility
EDT Latitude Longitude Course Direction KTS MPH feet Rate Location/Type
Mon 09:30:42 PM 41.8000 -87.8167 193° South 218 251 2,400  Level Chicago TRACON
Mon 09:31:23 PM 41.7803 -87.8606 239° Southwest 249 287 3,300 1,000 Climbing Chicago Center
Mon 09:32:24 PM 41.7131 -87.9222 214° Southwest 274 315 4,100 976 Climbing Chicago Center
Mon 09:33:26 PM 41.6456 -87.9806 213° Southwest 288 331 5,300 1,113 Climbing Chicago Center
Mon 09:34:28 PM 41.5647 -88.0322 206° Southwest 305 351 6,400 1,073 Climbing Chicago Center
Mon 09:35:29 PM 41.4786 -88.0297 179° South 309 356 7,500 1,268 Climbing Chicago Center
Mon 09:36:00 PM 41.3496 -88.0318 193° South  Level FlightAware Approximate
Mon 09:36:31 PM 41.3922 -88.0342 182° South 312 359 9,000  Level Chicago Center
Mon 09:37:32 PM 41.2942 -88.0564 190° South 333 383 9,800 390 Climbing Chicago Center
Mon 09:38:34 PM 41.1867 -88.0772 188° South 389 448 9,800  Level Chicago Center
Mon 09:39:35 PM 41.0747 -88.0944 187° South 403 464 9,800 49 Level Chicago Center
Mon 09:40:37 PM 40.9550 -88.1158 188° South 405 466 9,900 49 Climbing Chicago Center
Mon 09:41:38 PM 40.8450 -88.1356 188° South 402 463 9,900  Level Chicago Center
Mon 09:42:40 PM 40.7414 -88.1542 188° South 397 457 9,900  Level Chicago Center
Mon 09:43:41 PM 40.6311 -88.1733 188° South 398 458 9,900  Level Chicago Center
Mon 09:44:42 PM 40.5278 -88.1922 188° South 377 434 9,900 -537 Level Chicago Center
Mon 09:45:44 PM 40.4417 -88.2064 187° South 319 367 8,800 -1,366 Descending Chicago Center
Mon 09:46:45 PM 40.3436 -88.2244 188° South 300 345 7,100 -1,561 Descending Chicago Center
Mon 09:47:47 PM 40.2631 -88.2422 190° South 296 341 5,600 -1,512 Descending Chicago Center
Mon 09:48:48 PM 40.1886 -88.2750 199° South 289 333 4,000 -1,033 Descending Chicago Center
Mon 09:49:49 PM 40.1325 -88.3206 212° Southwest 258 297 3,500 -492 Descending Chicago Center
Mon 09:51:00 PM 40.0422 -88.2793 180° South  Level Estimated
Mon 09:58:00 PM 40.0388 -88.2778 180° South  Level Estimated
Mon 09:59:00 PM 40.0388 -88.2778 180° South  Level Estimated
Mon 10:00:00 PM 40.0388 -88.2778 180° South  Level Estimated
Mon 10:01:00 PM 40.0388 -88.2778 180° South  Level Estimated

Login

Don't have an account? Register now (free) for customized features, flight alerts, and more!